sensor_id;sensor_type;location;lat;lon;timestamp;temperature;humidity
20911;DHT22;10615;42.702;23.314;2022-08-21T00:00:19;19.50;99.90
20911;DHT22;10615;42.702;23.314;2022-08-21T00:01:24;19.60;99.90
20911;DHT22;10615;42.702;23.314;2022-08-21T00:02:27;19.60;99.90
20911;DHT22;10615;42.702;23.314;2022-08-21T00:03:28;19.60;99.90
20911;DHT22;10615;42.702;23.314;2022-08-21T00:04:30;19.60;99.90
20911;DHT22;10615;42.702;23.314;2022-08-21T00:05:32;19.60;99.90
20911;DHT22;10615;42.702;23.314;2022-08-21T00:06:34;19.70;99.90
20911;DHT22;10615;42.702;23.314;2022-08-21T00:07:35;19.70;99.90
20911;DHT22;10615;42.702;23.314;2022-08-21T00:08:36;19.70;99.90
20911;DHT22;10615;42.702;23.314;2022-08-21T00:09:37;19.70;99.90
20911;DHT22;10615;42.702;23.314;2022-08-21T00:10:39;19.70;99.90
20911;DHT22;10615;42.702;23.314;2022-08-21T00:11:40;19.60;99.90
20911;DHT22;10615;42.702;23.314;2022-08-21T00:12:41;19.60;99.90
20911;DHT22;10615;42.702;23.314;2022-08-21T00:13:43;19.60;99.90
20911;DHT22;10615;42.702;23.314;2022-08-21T00:14:43;19.60;99.90
20911;DHT22;10615;42.702;23.314;2022-08-21T00:15:44;19.50;99.90
20911;DHT22;10615;42.702;23.314;2022-08-21T00:16:45;19.60;99.90
20911;DHT22;10615;42.702;23.314;2022-08-21T00:17:46;19.60;99.90
20911;DHT22;10615;42.702;23.314;2022-08-21T00:18:47;19.50;99.90
20911;DHT22;10615;42.702;23.314;2022-08-21T00:19:47;19.60;99.90
20911;DHT22;10615;42.702;23.314;2022-08-21T00:20:48;19.60;99.90
20911;DHT22;10615;42.702;23.314;2022-08-21T00:21:49;19.60;99.90
20911;DHT22;10615;42.702;23.314;2022-08-21T00:22:50;19.60;99.90
20911;DHT22;10615;42.702;23.314;2022-08-21T00:23:51;19.60;99.90
20911;DHT22;10615;42.702;23.314;2022-08-21T00:24:52;19.60;99.90
20911;DHT22;10615;42.702;23.314;2022-08-21T00:25:52;19.60;99.90
20911;DHT22;10615;42.702;23.314;2022-08-21T00:26:53;19.60;99.90
20911;DHT22;10615;42.702;23.314;2022-08-21T00:27:55;19.60;99.90
20911;DHT22;10615;42.702;23.314;2022-08-21T00:28:56;19.60;99.90
20911;DHT22;10615;42.702;23.314;2022-08-21T00:29:57;19.60;99.90
20911;DHT22;10615;42.702;23.314;2022-08-21T00:30:58;19.60;99.90
20911;DHT22;10615;42.702;23.314;2022-08-21T00:31:59;19.60;99.90
20911;DHT22;10615;42.702;23.314;2022-08-21T00:33:01;19.60;99.90
20911;DHT22;10615;42.702;23.314;2022-08-21T00:34:03;19.60;99.90
20911;DHT22;10615;42.702;23.314;2022-08-21T00:35:05;19.60;99.90
20911;DHT22;10615;42.702;23.314;2022-08-21T00:36:07;19.60;99.90
20911;DHT22;10615;42.702;23.314;2022-08-21T00:37:07;19.60;99.90
20911;DHT22;10615;42.702;23.314;2022-08-21T00:38:08;19.60;99.90
20911;DHT22;10615;42.702;23.314;2022-08-21T00:39:09;19.60;99.90
20911;DHT22;10615;42.702;23.314;2022-08-21T00:40:14;19.60;99.90
20911;DHT22;10615;42.702;23.314;2022-08-21T00:41:15;19.60;99.90
20911;DHT22;10615;42.702;23.314;2022-08-21T00:42:16;19.60;99.90
20911;DHT22;10615;42.702;23.314;2022-08-21T00:43:26;19.70;99.90
20911;DHT22;10615;42.702;23.314;2022-08-21T00:44:28;19.60;99.90
20911;DHT22;10615;42.702;23.314;2022-08-21T00:45:29;19.70;99.90
20911;DHT22;10615;42.702;23.314;2022-08-21T00:46:30;19.70;99.90
20911;DHT22;10615;42.702;23.314;2022-08-21T00:47:31;19.70;99.90
20911;DHT22;10615;42.702;23.314;2022-08-21T00:48:33;19.70;99.90
20911;DHT22;10615;42.702;23.314;2022-08-21T00:49:34;19.70;99.90
20911;DHT22;10615;42.702;23.314;2022-08-21T00:50:38;19.70;99.90
20911;DHT22;10615;42.702;23.314;2022-08-21T00:51:49;19.70;99.90
20911;DHT22;10615;42.702;23.314;2022-08-21T00:52:51;19.70;99.90
20911;DHT22;10615;42.702;23.314;2022-08-21T00:53:56;19.70;99.90
20911;DHT22;10615;42.702;23.314;2022-08-21T00:54:59;19.70;99.90
20911;DHT22;10615;42.702;23.314;2022-08-21T00:56:00;19.70;99.90
20911;DHT22;10615;42.702;23.314;2022-08-21T00:57:14;19.70;99.90
20911;DHT22;10615;42.702;23.314;2022-08-21T00:58:16;19.70;99.90
20911;DHT22;10615;42.702;23.314;2022-08-21T00:59:19;19.70;99.90
20911;DHT22;10615;42.702;23.314;2022-08-21T01:00:26;19.70;99.90
20911;DHT22;10615;42.702;23.314;2022-08-21T01:01:30;19.70;99.90
20911;DHT22;10615;42.702;23.314;2022-08-21T01:02:31;19.70;99.90
20911;DHT22;10615;42.702;23.314;2022-08-21T01:03:33;19.70;99.90
20911;DHT22;10615;42.702;23.314;2022-08-21T01:04:34;19.70;99.90
20911;DHT22;10615;42.702;23.314;2022-08-21T01:05:35;19.70;99.90
20911;DHT22;10615;42.702;23.314;2022-08-21T01:06:36;19.70;99.90
20911;DHT22;10615;42.702;23.314;2022-08-21T01:07:37;19.70;99.90
20911;DHT22;10615;42.702;23.314;2022-08-21T01:08:38;19.70;99.90
20911;DHT22;10615;42.702;23.314;2022-08-21T01:09:40;19.70;99.90
20911;DHT22;10615;42.702;23.314;2022-08-21T01:10:43;19.70;99.90
20911;DHT22;10615;42.702;23.314;2022-08-21T01:11:45;19.70;99.90
20911;DHT22;10615;42.702;23.314;2022-08-21T01:12:46;19.60;99.90
20911;DHT22;10615;42.702;23.314;2022-08-21T01:13:47;19.60;99.90
20911;DHT22;10615;42.702;23.314;2022-08-21T01:14:48;19.60;99.90
20911;DHT22;10615;42.702;23.314;2022-08-21T01:15:50;19.60;99.90
20911;DHT22;10615;42.702;23.314;2022-08-21T01:16:53;19.70;99.90
20911;DHT22;10615;42.702;23.314;2022-08-21T01:17:54;19.70;99.90
20911;DHT22;10615;42.702;23.314;2022-08-21T01:18:55;19.60;99.90
20911;DHT22;10615;42.702;23.314;2022-08-21T01:20:00;19.60;99.90
20911;DHT22;10615;42.702;23.314;2022-08-21T01:21:16;19.60;99.90
20911;DHT22;10615;42.702;23.314;2022-08-21T01:22:17;19.60;99.90
20911;DHT22;10615;42.702;23.314;2022-08-21T01:23:17;19.70;99.90
20911;DHT22;10615;42.702;23.314;2022-08-21T01:24:18;19.70;99.90
20911;DHT22;10615;42.702;23.314;2022-08-21T01:25:19;19.70;99.90
20911;DHT22;10615;42.702;23.314;2022-08-21T01:26:24;19.70;99.90
20911;DHT22;10615;42.702;23.314;2022-08-21T01:27:25;19.70;99.90
20911;DHT22;10615;42.702;23.314;2022-08-21T01:28:27;19.70;99.90
20911;DHT22;10615;42.702;23.314;2022-08-21T01:29:48;19.70;99.90
20911;DHT22;10615;42.702;23.314;2022-08-21T01:30:51;19.70;99.90
20911;DHT22;10615;42.702;23.314;2022-08-21T01:31:53;19.70;99.90
20911;DHT22;10615;42.702;23.314;2022-08-21T01:32:55;19.70;99.90
20911;DHT22;10615;42.702;23.314;2022-08-21T01:33:56;19.60;99.90
20911;DHT22;10615;42.702;23.314;2022-08-21T01:34:57;19.60;99.90
20911;DHT22;10615;42.702;23.314;2022-08-21T01:35:57;19.70;99.90
20911;DHT22;10615;42.702;23.314;2022-08-21T01:36:58;19.70;99.90
20911;DHT22;10615;42.702;23.314;2022-08-21T01:37:59;19.70;99.90
20911;DHT22;10615;42.702;23.314;2022-08-21T01:39:01;19.70;99.90
20911;DHT22;10615;42.702;23.314;2022-08-21T01:40:03;19.70;99.90
20911;DHT22;10615;42.702;23.314;2022-08-21T01:41:04;19.70;99.90
20911;DHT22;10615;42.702;23.314;2022-08-21T01:42:06;19.70;99.90
20911;DHT22;10615;42.702;23.314;2022-08-21T01:43:06;19.70;99.90
20911;DHT22;10615;42.702;23.314;2022-08-21T01:44:07;19.70;99.90
20911;DHT22;10615;42.702;23.314;2022-08-21T01:45:09;19.70;99.90
20911;DHT22;10615;42.702;23.314;2022-08-21T01:46:11;19.70;99.90
20911;DHT22;10615;42.702;23.314;2022-08-21T01:47:14;19.70;99.90
20911;DHT22;10615;42.702;23.314;2022-08-21T01:48:15;19.70;99.90
20911;DHT22;10615;42.702;23.314;2022-08-21T01:49:16;19.70;99.90
20911;DHT22;10615;42.702;23.314;2022-08-21T01:50:19;19.70;99.90
20911;DHT22;10615;42.702;23.314;2022-08-21T01:51:20;19.70;99.90
20911;DHT22;10615;42.702;23.314;2022-08-21T01:52:21;19.70;99.90
20911;DHT22;10615;42.702;23.314;2022-08-21T01:53:22;19.70;99.90
20911;DHT22;10615;42.702;23.314;2022-08-21T01:54:22;19.70;99.90
20911;DHT22;10615;42.702;23.314;2022-08-21T01:55:23;19.70;99.90
20911;DHT22;10615;42.702;23.314;2022-08-21T01:56:25;19.70;99.90
20911;DHT22;10615;42.702;23.314;2022-08-21T01:57:26;19.70;99.90
20911;DHT22;10615;42.702;23.314;2022-08-21T01:58:27;19.70;99.90
20911;DHT22;10615;42.702;23.314;2022-08-21T01:59:28;19.70;99.90
20911;DHT22;10615;42.702;23.314;2022-08-21T02:00:29;19.80;99.90
20911;DHT22;10615;42.702;23.314;2022-08-21T02:01:29;19.70;99.90
20911;DHT22;10615;42.702;23.314;2022-08-21T02:02:30;19.80;99.90
20911;DHT22;10615;42.702;23.314;2022-08-21T02:03:31;19.80;99.90
20911;DHT22;10615;42.702;23.314;2022-08-21T02:04:32;19.80;99.90
20911;DHT22;10615;42.702;23.314;2022-08-21T02:05:33;19.80;99.90
20911;DHT22;10615;42.702;23.314;2022-08-21T02:06:34;19.80;99.90
20911;DHT22;10615;42.702;23.314;2022-08-21T02:07:46;19.80;99.90
20911;DHT22;10615;42.702;23.314;2022-08-21T02:08:47;19.80;99.90
20911;DHT22;10615;42.702;23.314;2022-08-21T02:09:48;19.80;99.90
20911;DHT22;10615;42.702;23.314;2022-08-21T02:10:51;19.70;99.90
20911;DHT22;10615;42.702;23.314;2022-08-21T02:11:52;19.70;99.90
20911;DHT22;10615;42.702;23.314;2022-08-21T02:12:53;19.70;99.90
20911;DHT22;10615;42.702;23.314;2022-08-21T02:13:54;19.70;99.90
20911;DHT22;10615;42.702;23.314;2022-08-21T02:14:54;19.70;99.90
20911;DHT22;10615;42.702;23.314;2022-08-21T02:15:55;19.60;99.90
20911;DHT22;10615;42.702;23.314;2022-08-21T02:16:55;19.60;99.90
20911;DHT22;10615;42.702;23.314;2022-08-21T02:17:59;19.60;99.90
20911;DHT22;10615;42.702;23.314;2022-08-21T02:19:01;19.50;99.90
20911;DHT22;10615;42.702;23.314;2022-08-21T02:20:03;19.50;99.90
20911;DHT22;10615;42.702;23.314;2022-08-21T02:21:04;19.50;99.90
20911;DHT22;10615;42.702;23.314;2022-08-21T02:22:05;19.50;99.90
20911;DHT22;10615;42.702;23.314;2022-08-21T02:23:07;19.40;99.90
20911;DHT22;10615;42.702;23.314;2022-08-21T02:24:10;19.40;99.90
20911;DHT22;10615;42.702;23.314;2022-08-21T02:25:10;19.40;99.90
20911;DHT22;10615;42.702;23.314;2022-08-21T02:26:12;19.40;99.90
20911;DHT22;10615;42.702;23.314;2022-08-21T02:27:13;19.40;99.90
20911;DHT22;10615;42.702;23.314;2022-08-21T02:28:15;19.30;99.90
20911;DHT22;10615;42.702;23.314;2022-08-21T02:29:15;19.30;99.90
20911;DHT22;10615;42.702;23.314;2022-08-21T02:30:23;19.30;99.90
20911;DHT22;10615;42.702;23.314;2022-08-21T02:31:24;19.30;99.90
20911;DHT22;10615;42.702;23.314;2022-08-21T02:32:25;19.30;99.90
20911;DHT22;10615;42.702;23.314;2022-08-21T02:33:27;19.30;99.90
20911;DHT22;10615;42.702;23.314;2022-08-21T02:34:28;19.30;99.90
20911;DHT22;10615;42.702;23.314;2022-08-21T02:35:28;19.30;99.90
20911;DHT22;10615;42.702;23.314;2022-08-21T02:36:29;19.30;99.90
20911;DHT22;10615;42.702;23.314;2022-08-21T02:37:30;19.30;99.90
20911;DHT22;10615;42.702;23.314;2022-08-21T02:38:33;19.30;99.90
20911;DHT22;10615;42.702;23.314;2022-08-21T02:39:34;19.30;99.90
20911;DHT22;10615;42.702;23.314;2022-08-21T02:40:37;19.20;99.90
20911;DHT22;10615;42.702;23.314;2022-08-21T02:41:38;19.20;99.90
20911;DHT22;10615;42.702;23.314;2022-08-21T02:42:39;19.20;99.90
20911;DHT22;10615;42.702;23.314;2022-08-21T02:43:40;19.20;99.90
20911;DHT22;10615;42.702;23.314;2022-08-21T02:44:41;19.20;99.90
20911;DHT22;10615;42.702;23.314;2022-08-21T02:45:43;19.20;99.90
20911;DHT22;10615;42.702;23.314;2022-08-21T02:46:44;19.20;99.90
20911;DHT22;10615;42.702;23.314;2022-08-21T02:47:52;19.20;99.90
20911;DHT22;10615;42.702;23.314;2022-08-21T02:48:53;19.30;99.90
20911;DHT22;10615;42.702;23.314;2022-08-21T02:49:54;19.30;99.90
20911;DHT22;10615;42.702;23.314;2022-08-21T02:51:00;19.30;99.90
20911;DHT22;10615;42.702;23.314;2022-08-21T02:52:01;19.30;99.90
20911;DHT22;10615;42.702;23.314;2022-08-21T02:53:02;19.30;99.90
20911;DHT22;10615;42.702;23.314;2022-08-21T02:54:03;19.30;99.90
20911;DHT22;10615;42.702;23.314;2022-08-21T02:55:04;19.40;99.90
20911;DHT22;10615;42.702;23.314;2022-08-21T02:56:08;19.40;99.90
20911;DHT22;10615;42.702;23.314;2022-08-21T02:57:10;19.40;99.90
20911;DHT22;10615;42.702;23.314;2022-08-21T02:58:11;19.40;99.90
20911;DHT22;10615;42.702;23.314;2022-08-21T02:59:13;19.40;99.90
20911;DHT22;10615;42.702;23.314;2022-08-21T03:00:14;19.50;99.90
20911;DHT22;10615;42.702;23.314;2022-08-21T03:01:15;19.50;99.90
20911;DHT22;10615;42.702;23.314;2022-08-21T03:02:16;19.50;99.90
20911;DHT22;10615;42.702;23.314;2022-08-21T03:03:17;19.50;99.90
20911;DHT22;10615;42.702;23.314;2022-08-21T03:04:18;19.50;99.90
20911;DHT22;10615;42.702;23.314;2022-08-21T03:05:19;19.50;99.90
20911;DHT22;10615;42.702;23.314;2022-08-21T03:06:21;19.50;99.90
20911;DHT22;10615;42.702;23.314;2022-08-21T03:07:22;19.60;99.90
20911;DHT22;10615;42.702;23.314;2022-08-21T03:08:23;19.50;99.90
20911;DHT22;10615;42.702;23.314;2022-08-21T03:09:24;19.50;99.90
20911;DHT22;10615;42.702;23.314;2022-08-21T03:10:25;19.50;99.90
20911;DHT22;10615;42.702;23.314;2022-08-21T03:11:26;19.50;99.90
20911;DHT22;10615;42.702;23.314;2022-08-21T03:12:26;19.50;99.90
20911;DHT22;10615;42.702;23.314;2022-08-21T03:13:27;19.50;99.90
20911;DHT22;10615;42.702;23.314;2022-08-21T03:14:28;19.50;99.90
20911;DHT22;10615;42.702;23.314;2022-08-21T03:15:30;19.40;99.90
20911;DHT22;10615;42.702;23.314;2022-08-21T03:16:30;19.40;99.90
20911;DHT22;10615;42.702;23.314;2022-08-21T03:17:31;19.40;99.90
20911;DHT22;10615;42.702;23.314;2022-08-21T03:18:32;19.40;99.90
20911;DHT22;10615;42.702;23.314;2022-08-21T03:19:33;19.30;99.90
20911;DHT22;10615;42.702;23.314;2022-08-21T03:20:35;19.30;99.90
20911;DHT22;10615;42.702;23.314;2022-08-21T03:21:36;19.30;99.90
20911;DHT22;10615;42.702;23.314;2022-08-21T03:22:37;19.30;99.90
20911;DHT22;10615;42.702;23.314;2022-08-21T03:23:38;19.30;99.90
20911;DHT22;10615;42.702;23.314;2022-08-21T03:24:40;19.30;99.90
20911;DHT22;10615;42.702;23.314;2022-08-21T03:25:41;19.40;99.90
20911;DHT22;10615;42.702;23.314;2022-08-21T03:26:42;19.30;99.90
20911;DHT22;10615;42.702;23.314;2022-08-21T03:27:43;19.30;99.90
20911;DHT22;10615;42.702;23.314;2022-08-21T03:28:44;19.30;99.90
20911;DHT22;10615;42.702;23.314;2022-08-21T03:29:44;19.30;99.90
20911;DHT22;10615;42.702;23.314;2022-08-21T03:30:48;19.30;99.90
20911;DHT22;10615;42.702;23.314;2022-08-21T03:31:49;19.30;99.90
20911;DHT22;10615;42.702;23.314;2022-08-21T03:32:50;19.20;99.90
20911;DHT22;10615;42.702;23.314;2022-08-21T03:33:53;19.20;99.90
20911;DHT22;10615;42.702;23.314;2022-08-21T03:34:55;19.20;99.90
20911;DHT22;10615;42.702;23.314;2022-08-21T03:36:08;19.10;99.90
20911;DHT22;10615;42.702;23.314;2022-08-21T03:37:10;19.10;99.90
20911;DHT22;10615;42.702;23.314;2022-08-21T03:38:12;19.00;99.90
20911;DHT22;10615;42.702;23.314;2022-08-21T03:39:13;19.00;99.90
20911;DHT22;10615;42.702;23.314;2022-08-21T03:40:16;19.00;99.90
20911;DHT22;10615;42.702;23.314;2022-08-21T03:41:17;18.90;99.90
20911;DHT22;10615;42.702;23.314;2022-08-21T03:42:18;18.90;99.90
20911;DHT22;10615;42.702;23.314;2022-08-21T03:43:19;18.80;99.90
20911;DHT22;10615;42.702;23.314;2022-08-21T03:44:20;18.80;99.90
20911;DHT22;10615;42.702;23.314;2022-08-21T03:45:21;18.70;99.90
20911;DHT22;10615;42.702;23.314;2022-08-21T03:46:22;18.70;99.90
20911;DHT22;10615;42.702;23.314;2022-08-21T03:47:23;18.70;99.90
20911;DHT22;10615;42.702;23.314;2022-08-21T03:48:24;18.60;99.90
20911;DHT22;10615;42.702;23.314;2022-08-21T03:49:25;18.60;99.90
20911;DHT22;10615;42.702;23.314;2022-08-21T03:50:30;18.50;99.90
20911;DHT22;10615;42.702;23.314;2022-08-21T03:51:30;18.50;99.90
20911;DHT22;10615;42.702;23.314;2022-08-21T03:52:32;18.60;99.90
20911;DHT22;10615;42.702;23.314;2022-08-21T03:53:33;18.50;99.90
20911;DHT22;10615;42.702;23.314;2022-08-21T03:54:34;18.60;99.90
20911;DHT22;10615;42.702;23.314;2022-08-21T03:55:35;18.60;99.90
20911;DHT22;10615;42.702;23.314;2022-08-21T03:56:36;18.60;99.90
20911;DHT22;10615;42.702;23.314;2022-08-21T03:57:36;18.60;99.90
20911;DHT22;10615;42.702;23.314;2022-08-21T03:58:37;18.60;99.90
20911;DHT22;10615;42.702;23.314;2022-08-21T03:59:38;18.60;99.90
20911;DHT22;10615;42.702;23.314;2022-08-21T04:00:39;18.70;99.90
20911;DHT22;10615;42.702;23.314;2022-08-21T04:01:54;18.60;99.90
20911;DHT22;10615;42.702;23.314;2022-08-21T04:02:55;18.60;99.90
20911;DHT22;10615;42.702;23.314;2022-08-21T04:03:56;18.60;99.90
20911;DHT22;10615;42.702;23.314;2022-08-21T04:04:56;18.70;99.90
20911;DHT22;10615;42.702;23.314;2022-08-21T04:05:57;18.70;99.90
20911;DHT22;10615;42.702;23.314;2022-08-21T04:06:58;18.70;99.90
20911;DHT22;10615;42.702;23.314;2022-08-21T04:08:01;18.70;99.90
20911;DHT22;10615;42.702;23.314;2022-08-21T04:09:02;18.70;99.90
20911;DHT22;10615;42.702;23.314;2022-08-21T04:10:05;18.70;99.90
20911;DHT22;10615;42.702;23.314;2022-08-21T04:11:06;18.60;99.90
20911;DHT22;10615;42.702;23.314;2022-08-21T04:12:07;18.60;99.90
20911;DHT22;10615;42.702;23.314;2022-08-21T04:13:08;18.60;99.90
20911;DHT22;10615;42.702;23.314;2022-08-21T04:14:09;18.60;99.90
20911;DHT22;10615;42.702;23.314;2022-08-21T04:15:10;18.50;99.90
20911;DHT22;10615;42.702;23.314;2022-08-21T04:16:11;18.60;99.90
20911;DHT22;10615;42.702;23.314;2022-08-21T04:17:12;18.50;99.90
20911;DHT22;10615;42.702;23.314;2022-08-21T04:18:13;18.50;99.90
20911;DHT22;10615;42.702;23.314;2022-08-21T04:19:14;18.50;99.90
20911;DHT22;10615;42.702;23.314;2022-08-21T04:20:16;18.50;99.90
20911;DHT22;10615;42.702;23.314;2022-08-21T04:21:17;18.60;99.90
20911;DHT22;10615;42.702;23.314;2022-08-21T04:22:18;18.60;99.90
20911;DHT22;10615;42.702;23.314;2022-08-21T04:23:20;18.60;99.90
20911;DHT22;10615;42.702;23.314;2022-08-21T04:24:21;18.60;99.90
20911;DHT22;10615;42.702;23.314;2022-08-21T04:25:23;18.70;99.90
20911;DHT22;10615;42.702;23.314;2022-08-21T04:26:24;18.60;99.90
20911;DHT22;10615;42.702;23.314;2022-08-21T04:27:25;18.70;99.90
20911;DHT22;10615;42.702;23.314;2022-08-21T04:28:27;18.70;99.90
20911;DHT22;10615;42.702;23.314;2022-08-21T04:29:28;18.70;99.90
20911;DHT22;10615;42.702;23.314;2022-08-21T04:30:29;18.70;99.90
20911;DHT22;10615;42.702;23.314;2022-08-21T04:31:30;18.80;99.90
20911;DHT22;10615;42.702;23.314;2022-08-21T04:32:30;18.80;99.90
20911;DHT22;10615;42.702;23.314;2022-08-21T04:33:31;18.90;99.90
20911;DHT22;10615;42.702;23.314;2022-08-21T04:34:32;18.90;99.90
20911;DHT22;10615;42.702;23.314;2022-08-21T04:35:33;19.00;99.90
20911;DHT22;10615;42.702;23.314;2022-08-21T04:36:33;19.00;99.90
20911;DHT22;10615;42.702;23.314;2022-08-21T04:37:34;18.90;99.90
20911;DHT22;10615;42.702;23.314;2022-08-21T04:38:35;18.90;99.90
20911;DHT22;10615;42.702;23.314;2022-08-21T04:39:36;19.00;99.90
20911;DHT22;10615;42.702;23.314;2022-08-21T04:40:37;18.90;99.90
20911;DHT22;10615;42.702;23.314;2022-08-21T04:41:37;18.90;99.90
20911;DHT22;10615;42.702;23.314;2022-08-21T04:42:51;19.00;99.90
20911;DHT22;10615;42.702;23.314;2022-08-21T04:43:52;19.00;99.90
20911;DHT22;10615;42.702;23.314;2022-08-21T04:44:53;19.00;99.90
20911;DHT22;10615;42.702;23.314;2022-08-21T04:45:54;19.00;99.90
20911;DHT22;10615;42.702;23.314;2022-08-21T04:46:55;18.90;99.90
20911;DHT22;10615;42.702;23.314;2022-08-21T04:47:57;18.90;99.90
20911;DHT22;10615;42.702;23.314;2022-08-21T04:48:58;19.00;99.90
20911;DHT22;10615;42.702;23.314;2022-08-21T04:49:59;19.10;99.90
20911;DHT22;10615;42.702;23.314;2022-08-21T04:52:05;19.20;99.90
20911;DHT22;10615;42.702;23.314;2022-08-21T04:53:08;19.30;99.90
20911;DHT22;10615;42.702;23.314;2022-08-21T04:54:17;19.30;99.90
20911;DHT22;10615;42.702;23.314;2022-08-21T04:55:20;19.40;99.90
20911;DHT22;10615;42.702;23.314;2022-08-21T04:56:59;19.60;99.90
20911;DHT22;10615;42.702;23.314;2022-08-21T04:58:00;19.80;99.90
20911;DHT22;10615;42.702;23.314;2022-08-21T04:59:05;20.10;99.90
20911;DHT22;10615;42.702;23.314;2022-08-21T05:00:07;20.50;99.90
20911;DHT22;10615;42.702;23.314;2022-08-21T05:01:13;20.90;99.90
20911;DHT22;10615;42.702;23.314;2022-08-21T05:02:15;21.50;99.90
20911;DHT22;10615;42.702;23.314;2022-08-21T05:03:16;22.00;99.90
20911;DHT22;10615;42.702;23.314;2022-08-21T05:04:21;22.40;99.90
20911;DHT22;10615;42.702;23.314;2022-08-21T05:05:23;23.20;99.90
20911;DHT22;10615;42.702;23.314;2022-08-21T05:06:24;23.80;99.90
20911;DHT22;10615;42.702;23.314;2022-08-21T05:07:28;24.20;97.80
20911;DHT22;10615;42.702;23.314;2022-08-21T05:08:30;24.30;95.60
20911;DHT22;10615;42.702;23.314;2022-08-21T05:09:31;24.70;94.30
20911;DHT22;10615;42.702;23.314;2022-08-21T05:10:32;25.20;92.90
20911;DHT22;10615;42.702;23.314;2022-08-21T05:11:33;25.30;90.80
20911;DHT22;10615;42.702;23.314;2022-08-21T05:12:35;25.50;89.20
20911;DHT22;10615;42.702;23.314;2022-08-21T05:13:36;25.60;87.90
20911;DHT22;10615;42.702;23.314;2022-08-21T05:14:37;25.60;87.00
20911;DHT22;10615;42.702;23.314;2022-08-21T05:15:38;25.50;85.00
20911;DHT22;10615;42.702;23.314;2022-08-21T05:16:39;25.70;84.50
20911;DHT22;10615;42.702;23.314;2022-08-21T05:17:41;25.50;83.80
20911;DHT22;10615;42.702;23.314;2022-08-21T05:18:42;25.50;83.80
20911;DHT22;10615;42.702;23.314;2022-08-21T05:19:43;25.50;83.40
20911;DHT22;10615;42.702;23.314;2022-08-21T05:20:44;25.80;83.50
20911;DHT22;10615;42.702;23.314;2022-08-21T05:21:46;26.00;82.80
20911;DHT22;10615;42.702;23.314;2022-08-21T05:22:47;25.90;80.90
20911;DHT22;10615;42.702;23.314;2022-08-21T05:23:48;25.90;81.00
20911;DHT22;10615;42.702;23.314;2022-08-21T05:24:49;25.90;80.70
20911;DHT22;10615;42.702;23.314;2022-08-21T05:25:51;26.00;80.20
20911;DHT22;10615;42.702;23.314;2022-08-21T05:26:51;26.50;80.20
20911;DHT22;10615;42.702;23.314;2022-08-21T05:27:53;26.60;79.10
20911;DHT22;10615;42.702;23.314;2022-08-21T05:28:53;26.60;78.10
20911;DHT22;10615;42.702;23.314;2022-08-21T05:29:54;26.80;77.50
20911;DHT22;10615;42.702;23.314;2022-08-21T05:30:55;26.80;76.80
20911;DHT22;10615;42.702;23.314;2022-08-21T05:31:55;26.80;76.10
20911;DHT22;10615;42.702;23.314;2022-08-21T05:33:15;26.50;75.90
20911;DHT22;10615;42.702;23.314;2022-08-21T05:34:22;26.30;76.00
20911;DHT22;10615;42.702;23.314;2022-08-21T05:35:23;26.00;76.30
20911;DHT22;10615;42.702;23.314;2022-08-21T05:36:24;25.60;76.80
20911;DHT22;10615;42.702;23.314;2022-08-21T05:37:25;25.40;78.80
20911;DHT22;10615;42.702;23.314;2022-08-21T05:38:26;25.10;78.80
20911;DHT22;10615;42.702;23.314;2022-08-21T05:39:28;24.90;79.70
20911;DHT22;10615;42.702;23.314;2022-08-21T05:40:29;24.60;80.60
20911;DHT22;10615;42.702;23.314;2022-08-21T05:41:30;24.40;81.40
20911;DHT22;10615;42.702;23.314;2022-08-21T05:42:31;24.20;82.40
20911;DHT22;10615;42.702;23.314;2022-08-21T05:43:31;24.00;83.70
20911;DHT22;10615;42.702;23.314;2022-08-21T05:44:36;24.00;85.00
20911;DHT22;10615;42.702;23.314;2022-08-21T05:45:37;24.20;85.80
20911;DHT22;10615;42.702;23.314;2022-08-21T05:46:38;24.30;85.80
20911;DHT22;10615;42.702;23.314;2022-08-21T05:47:38;24.50;85.20
20911;DHT22;10615;42.702;23.314;2022-08-21T05:48:40;24.50;84.60
20911;DHT22;10615;42.702;23.314;2022-08-21T05:49:40;24.50;84.00
20911;DHT22;10615;42.702;23.314;2022-08-21T05:50:42;24.50;84.20
20911;DHT22;10615;42.702;23.314;2022-08-21T05:51:43;24.60;84.00
20911;DHT22;10615;42.702;23.314;2022-08-21T05:52:43;24.60;83.90
20911;DHT22;10615;42.702;23.314;2022-08-21T05:53:44;24.60;83.70
20911;DHT22;10615;42.702;23.314;2022-08-21T05:54:45;24.50;83.40
20911;DHT22;10615;42.702;23.314;2022-08-21T05:55:46;24.30;83.20
20911;DHT22;10615;42.702;23.314;2022-08-21T05:56:47;24.10;83.80
20911;DHT22;10615;42.702;23.314;2022-08-21T05:57:48;24.00;84.80
20911;DHT22;10615;42.702;23.314;2022-08-21T05:58:49;23.90;85.50
20911;DHT22;10615;42.702;23.314;2022-08-21T05:59:50;23.80;85.90
20911;DHT22;10615;42.702;23.314;2022-08-21T06:00:51;23.70;87.00
20911;DHT22;10615;42.702;23.314;2022-08-21T06:01:53;23.70;86.80
20911;DHT22;10615;42.702;23.314;2022-08-21T06:02:54;23.60;87.30
20911;DHT22;10615;42.702;23.314;2022-08-21T06:03:54;23.60;87.80
20911;DHT22;10615;42.702;23.314;2022-08-21T06:04:56;23.50;88.20
20911;DHT22;10615;42.702;23.314;2022-08-21T06:05:57;23.50;88.90
20911;DHT22;10615;42.702;23.314;2022-08-21T06:06:58;23.40;89.10
20911;DHT22;10615;42.702;23.314;2022-08-21T06:07:58;23.40;89.40
20911;DHT22;10615;42.702;23.314;2022-08-21T06:08:59;23.40;89.60
20911;DHT22;10615;42.702;23.314;2022-08-21T06:10:00;23.40;90.00
20911;DHT22;10615;42.702;23.314;2022-08-21T06:11:02;23.40;90.10
20911;DHT22;10615;42.702;23.314;2022-08-21T06:12:08;23.40;90.10
20911;DHT22;10615;42.702;23.314;2022-08-21T06:13:10;23.40;90.00
20911;DHT22;10615;42.702;23.314;2022-08-21T06:14:14;23.50;90.10
20911;DHT22;10615;42.702;23.314;2022-08-21T06:15:14;23.70;90.10
20911;DHT22;10615;42.702;23.314;2022-08-21T06:16:16;24.10;90.00
20911;DHT22;10615;42.702;23.314;2022-08-21T06:17:17;24.50;88.80
20911;DHT22;10615;42.702;23.314;2022-08-21T06:18:17;25.30;87.40
20911;DHT22;10615;42.702;23.314;2022-08-21T06:19:18;26.00;85.00
20911;DHT22;10615;42.702;23.314;2022-08-21T06:20:19;26.60;82.00
20911;DHT22;10615;42.702;23.314;2022-08-21T06:21:20;27.10;79.10
20911;DHT22;10615;42.702;23.314;2022-08-21T06:22:21;27.60;76.70
20911;DHT22;10615;42.702;23.314;2022-08-21T06:23:22;28.10;74.20
20911;DHT22;10615;42.702;23.314;2022-08-21T06:24:23;29.20;72.40
20911;DHT22;10615;42.702;23.314;2022-08-21T06:25:24;30.60;70.10